CheckWX is a tool to help pilots better visualize weather data.  It is not intended as a substitute for an official pre-flight weather briefing.

02:05:56 UTC

LFPN METAR
Toussus-le-Noble Airport
Toussus-le-Noble, France
Current

36 mins ago

LFPN 280130Z AUTO 03006KT 350V070 CAVOK 15/06 Q1031
Observed
May-28 @ 01:30 UTC
Wind
  • 030° at 6 KTS
Visibility
10,000+ meters
Flight Rules
VFR
Cloud Levels
  • Clear skies
Temperature
15°C / 59°F
Dewpoint
C / 43°F
Humidity
55%
Altimeter
30.44" Hg
Pressure
1030.92 hPa
Previous

1 hour ago

LFPN 280100Z AUTO 03008KT 360V060 CAVOK 15/06 Q1031
Observed
May-28 @ 01:00 UTC
Wind
  • 030° at 8 KTS
Visibility
10,000+ meters
Flight Rules
VFR
Cloud Levels
  • Clear skies
Temperature
15°C / 59°F
Dewpoint
C / 43°F
Humidity
55%
Altimeter
30.44" Hg
Pressure
1030.92 hPa
Previous

2 hours ago

LFPN 280030Z AUTO 03011KT CAVOK 16/06 Q1031
Observed
May-28 @ 00:30 UTC
Wind
  • 030° at 11 KTS
Visibility
10,000+ meters
Flight Rules
VFR
Cloud Levels
  • Clear skies
Temperature
16°C / 61°F
Dewpoint
C / 43°F
Humidity
52%
Altimeter
30.44" Hg
Pressure
1030.92 hPa